sensor_id;sensor_type;location;lat;lon;timestamp;P1;durP1;ratioP1;P2;durP2;ratioP2
69203;SDS011;56317;27.658;85.326;2023-03-01T00:01:40;496.42;;;269.10;;
69203;SDS011;56317;27.658;85.326;2023-03-01T00:04:07;502.20;;;269.95;;
69203;SDS011;56317;27.658;85.326;2023-03-01T00:06:35;489.55;;;266.35;;
69203;SDS011;56317;27.658;85.326;2023-03-01T00:09:02;494.48;;;268.35;;
69203;SDS011;56317;27.658;85.326;2023-03-01T00:11:31;485.15;;;263.83;;
69203;SDS011;56317;27.658;85.326;2023-03-01T00:13:59;484.75;;;259.45;;
69203;SDS011;56317;27.658;85.326;2023-03-01T00:16:37;376.13;;;199.77;;
69203;SDS011;56317;27.658;85.326;2023-03-01T00:19:12;472.70;;;253.70;;
69203;SDS011;56317;27.658;85.326;2023-03-01T00:21:41;484.80;;;255.25;;
69203;SDS011;56317;27.658;85.326;2023-03-01T00:24:09;464.23;;;251.57;;
69203;SDS011;56317;27.658;85.326;2023-03-01T00:26:36;488.10;;;267.20;;
69203;SDS011;56317;27.658;85.326;2023-03-01T00:29:04;474.63;;;258.25;;
69203;SDS011;56317;27.658;85.326;2023-03-01T00:31:32;473.38;;;253.05;;
69203;SDS011;56317;27.658;85.326;2023-03-01T00:34:00;463.50;;;247.77;;
69203;SDS011;56317;27.658;85.326;2023-03-01T00:36:30;469.52;;;250.65;;
69203;SDS011;56317;27.658;85.326;2023-03-01T00:38:59;481.02;;;256.08;;
69203;SDS011;56317;27.658;85.326;2023-03-01T00:41:27;487.63;;;255.38;;
69203;SDS011;56317;27.658;85.326;2023-03-01T00:43:54;479.77;;;251.85;;
69203;SDS011;56317;27.658;85.326;2023-03-01T00:46:23;475.20;;;248.27;;
69203;SDS011;56317;27.658;85.326;2023-03-01T00:48:52;494.02;;;252.07;;
69203;SDS011;56317;27.658;85.326;2023-03-01T00:51:21;464.92;;;245.20;;
69203;SDS011;56317;27.658;85.326;2023-03-01T00:53:51;345.45;;;186.02;;
69203;SDS011;56317;27.658;85.326;2023-03-01T00:56:20;440.15;;;240.65;;
69203;SDS011;56317;27.658;85.326;2023-03-01T00:58:48;452.02;;;243.52;;
69203;SDS011;56317;27.658;85.326;2023-03-01T01:01:17;446.98;;;239.50;;
69203;SDS011;56317;27.658;85.326;2023-03-01T01:03:50;424.65;;;241.15;;
69203;SDS011;56317;27.658;85.326;2023-03-01T01:06:23;420.08;;;233.43;;
69203;SDS011;56317;27.658;85.326;2023-03-01T01:09:02;441.33;;;237.73;;
69203;SDS011;56317;27.658;85.326;2023-03-01T01:11:32;412.98;;;232.70;;
69203;SDS011;56317;27.658;85.326;2023-03-01T01:14:01;411.85;;;232.35;;
69203;SDS011;56317;27.658;85.326;2023-03-01T01:16:29;405.77;;;226.15;;
69203;SDS011;56317;27.658;85.326;2023-03-01T01:18:57;398.73;;;227.25;;
69203;SDS011;56317;27.658;85.326;2023-03-01T01:21:25;390.23;;;221.43;;
69203;SDS011;56317;27.658;85.326;2023-03-01T01:23:53;390.70;;;221.25;;
69203;SDS011;56317;27.658;85.326;2023-03-01T01:26:23;406.10;;;232.13;;
69203;SDS011;56317;27.658;85.326;2023-03-01T01:28:53;460.05;;;258.98;;
69203;SDS011;56317;27.658;85.326;2023-03-01T01:31:21;465.85;;;251.40;;
69203;SDS011;56317;27.658;85.326;2023-03-01T01:33:49;437.00;;;249.27;;
69203;SDS011;56317;27.658;85.326;2023-03-01T01:36:18;430.02;;;246.75;;
69203;SDS011;56317;27.658;85.326;2023-03-01T01:38:45;438.27;;;252.38;;
69203;SDS011;56317;27.658;85.326;2023-03-01T01:41:13;453.65;;;263.52;;
69203;SDS011;56317;27.658;85.326;2023-03-01T01:43:41;443.30;;;253.63;;
69203;SDS011;56317;27.658;85.326;2023-03-01T01:46:32;387.10;;;232.27;;
69203;SDS011;56317;27.658;85.326;2023-03-01T01:49:04;392.83;;;233.68;;
69203;SDS011;56317;27.658;85.326;2023-03-01T01:51:55;356.77;;;212.55;;
69203;SDS011;56317;27.658;85.326;2023-03-01T01:54:44;352.40;;;211.20;;
69203;SDS011;56317;27.658;85.326;2023-03-01T01:57:14;369.83;;;219.93;;
69203;SDS011;56317;27.658;85.326;2023-03-01T01:59:49;330.33;;;199.38;;
69203;SDS011;56317;27.658;85.326;2023-03-01T02:02:24;336.83;;;201.23;;
69203;SDS011;56317;27.658;85.326;2023-03-01T02:04:53;346.85;;;203.50;;
69203;SDS011;56317;27.658;85.326;2023-03-01T02:07:29;356.10;;;208.80;;
69203;SDS011;56317;27.658;85.326;2023-03-01T02:09:57;345.98;;;204.02;;
69203;SDS011;56317;27.658;85.326;2023-03-01T02:12:25;314.05;;;196.43;;
69203;SDS011;56317;27.658;85.326;2023-03-01T02:14:53;320.23;;;191.60;;
69203;SDS011;56317;27.658;85.326;2023-03-01T02:17:20;318.27;;;191.68;;
69203;SDS011;56317;27.658;85.326;2023-03-01T02:19:52;329.45;;;196.52;;
69203;SDS011;56317;27.658;85.326;2023-03-01T02:22:39;250.32;;;160.68;;
69203;SDS011;56317;27.658;85.326;2023-03-01T02:30:47;328.88;;;202.40;;
69203;SDS011;56317;27.658;85.326;2023-03-01T02:33:34;333.98;;;212.57;;
69203;SDS011;56317;27.658;85.326;2023-03-01T02:36:04;340.77;;;205.05;;
69203;SDS011;56317;27.658;85.326;2023-03-01T02:38:36;318.10;;;199.18;;
69203;SDS011;56317;27.658;85.326;2023-03-01T02:41:04;333.17;;;206.05;;
69203;SDS011;56317;27.658;85.326;2023-03-01T02:43:33;324.73;;;203.70;;
69203;SDS011;56317;27.658;85.326;2023-03-01T02:46:17;323.95;;;201.43;;
69203;SDS011;56317;27.658;85.326;2023-03-01T02:48:48;305.67;;;194.90;;
69203;SDS011;56317;27.658;85.326;2023-03-01T02:51:31;297.73;;;187.45;;
69203;SDS011;56317;27.658;85.326;2023-03-01T02:57:18;292.98;;;186.25;;
69203;SDS011;56317;27.658;85.326;2023-03-01T02:59:47;283.45;;;175.65;;
69203;SDS011;56317;27.658;85.326;2023-03-01T03:02:23;297.73;;;194.20;;
69203;SDS011;56317;27.658;85.326;2023-03-01T03:05:20;328.77;;;206.75;;
69203;SDS011;56317;27.658;85.326;2023-03-01T03:07:50;344.95;;;228.75;;
69203;SDS011;56317;27.658;85.326;2023-03-01T03:10:27;346.55;;;238.43;;
69203;SDS011;56317;27.658;85.326;2023-03-01T03:12:57;316.80;;;214.43;;
69203;SDS011;56317;27.658;85.326;2023-03-01T03:15:27;292.73;;;188.88;;
69203;SDS011;56317;27.658;85.326;2023-03-01T03:17:56;272.48;;;177.32;;
69203;SDS011;56317;27.658;85.326;2023-03-01T03:20:25;251.00;;;157.13;;
69203;SDS011;56317;27.658;85.326;2023-03-01T03:22:54;232.75;;;146.93;;
69203;SDS011;56317;27.658;85.326;2023-03-01T03:25:24;239.15;;;150.07;;
69203;SDS011;56317;27.658;85.326;2023-03-01T03:27:52;260.70;;;161.40;;
69203;SDS011;56317;27.658;85.326;2023-03-01T03:30:23;269.75;;;174.63;;
69203;SDS011;56317;27.658;85.326;2023-03-01T03:32:57;274.30;;;176.52;;
69203;SDS011;56317;27.658;85.326;2023-03-01T03:35:29;272.83;;;180.27;;
69203;SDS011;56317;27.658;85.326;2023-03-01T03:38:05;290.98;;;181.10;;
69203;SDS011;56317;27.658;85.326;2023-03-01T03:40:45;295.35;;;193.88;;
69203;SDS011;56317;27.658;85.326;2023-03-01T03:43:15;290.80;;;190.63;;
69203;SDS011;56317;27.658;85.326;2023-03-01T03:45:49;273.80;;;178.88;;
69203;SDS011;56317;27.658;85.326;2023-03-01T03:48:17;292.65;;;190.00;;
69203;SDS011;56317;27.658;85.326;2023-03-01T03:50:49;297.55;;;195.57;;
69203;SDS011;56317;27.658;85.326;2023-03-01T03:53:18;301.42;;;196.43;;
69203;SDS011;56317;27.658;85.326;2023-03-01T03:55:46;307.88;;;206.13;;
69203;SDS011;56317;27.658;85.326;2023-03-01T03:58:17;325.27;;;222.53;;
69203;SDS011;56317;27.658;85.326;2023-03-01T04:00:47;282.48;;;193.98;;
69203;SDS011;56317;27.658;85.326;2023-03-01T04:03:17;286.45;;;190.85;;
69203;SDS011;56317;27.658;85.326;2023-03-01T04:05:46;287.15;;;190.77;;
69203;SDS011;56317;27.658;85.326;2023-03-01T04:08:16;280.70;;;185.35;;
69203;SDS011;56317;27.658;85.326;2023-03-01T04:13:16;282.60;;;186.27;;
69203;SDS011;56317;27.658;85.326;2023-03-01T04:15:49;275.55;;;188.27;;
69203;SDS011;56317;27.658;85.326;2023-03-01T04:18:19;279.45;;;190.32;;
69203;SDS011;56317;27.658;85.326;2023-03-01T04:20:47;273.00;;;186.23;;
69203;SDS011;56317;27.658;85.326;2023-03-01T04:23:18;271.52;;;183.55;;
69203;SDS011;56317;27.658;85.326;2023-03-01T04:25:50;275.05;;;179.18;;
69203;SDS011;56317;27.658;85.326;2023-03-01T04:28:26;265.15;;;177.25;;
69203;SDS011;56317;27.658;85.326;2023-03-01T04:31:02;259.77;;;168.52;;
69203;SDS011;56317;27.658;85.326;2023-03-01T04:33:47;272.77;;;178.07;;
69203;SDS011;56317;27.658;85.326;2023-03-01T04:36:21;298.40;;;209.43;;
69203;SDS011;56317;27.658;85.326;2023-03-01T04:38:50;266.00;;;172.25;;
69203;SDS011;56317;27.658;85.326;2023-03-01T04:41:19;242.05;;;155.75;;
69203;SDS011;56317;27.658;85.326;2023-03-01T04:43:48;178.65;;;114.68;;
69203;SDS011;56317;27.658;85.326;2023-03-01T04:46:18;171.43;;;116.38;;
69203;SDS011;56317;27.658;85.326;2023-03-01T04:48:46;182.05;;;121.50;;
69203;SDS011;56317;27.658;85.326;2023-03-01T04:51:14;190.95;;;125.90;;
69203;SDS011;56317;27.658;85.326;2023-03-01T04:53:43;206.13;;;134.57;;
69203;SDS011;56317;27.658;85.326;2023-03-01T04:56:10;191.02;;;132.38;;
69203;SDS011;56317;27.658;85.326;2023-03-01T04:58:39;206.68;;;135.68;;
69203;SDS011;56317;27.658;85.326;2023-03-01T05:01:10;190.85;;;125.85;;
69203;SDS011;56317;27.658;85.326;2023-03-01T05:03:43;187.50;;;127.00;;
69203;SDS011;56317;27.658;85.326;2023-03-01T05:06:12;165.50;;;114.45;;
69203;SDS011;56317;27.658;85.326;2023-03-01T05:08:40;164.82;;;106.65;;
69203;SDS011;56317;27.658;85.326;2023-03-01T05:11:08;148.27;;;104.47;;
69203;SDS011;56317;27.658;85.326;2023-03-01T05:13:37;153.93;;;102.68;;
69203;SDS011;56317;27.658;85.326;2023-03-01T05:16:05;169.82;;;108.85;;
69203;SDS011;56317;27.658;85.326;2023-03-01T05:18:36;148.38;;;105.00;;
69203;SDS011;56317;27.658;85.326;2023-03-01T05:21:08;152.95;;;104.05;;
69203;SDS011;56317;27.658;85.326;2023-03-01T05:23:41;201.50;;;129.48;;
69203;SDS011;56317;27.658;85.326;2023-03-01T05:26:09;144.05;;;101.70;;
69203;SDS011;56317;27.658;85.326;2023-03-01T05:28:38;135.73;;;100.82;;
69203;SDS011;56317;27.658;85.326;2023-03-01T05:31:06;154.50;;;102.00;;
69203;SDS011;56317;27.658;85.326;2023-03-01T05:33:38;147.05;;;94.35;;
69203;SDS011;56317;27.658;85.326;2023-03-01T05:36:08;129.48;;;95.90;;
69203;SDS011;56317;27.658;85.326;2023-03-01T05:38:36;140.50;;;100.85;;
69203;SDS011;56317;27.658;85.326;2023-03-01T05:41:03;135.23;;;99.75;;
69203;SDS011;56317;27.658;85.326;2023-03-01T05:43:31;138.90;;;101.00;;
69203;SDS011;56317;27.658;85.326;2023-03-01T05:46:01;156.38;;;104.13;;
69203;SDS011;56317;27.658;85.326;2023-03-01T05:48:28;118.43;;;89.38;;
69203;SDS011;56317;27.658;85.326;2023-03-01T05:50:58;104.85;;;77.43;;
69203;SDS011;56317;27.658;85.326;2023-03-01T05:53:26;132.23;;;93.03;;
69203;SDS011;56317;27.658;85.326;2023-03-01T05:55:53;122.85;;;93.97;;
69203;SDS011;56317;27.658;85.326;2023-03-01T05:58:20;131.77;;;97.88;;
69203;SDS011;56317;27.658;85.326;2023-03-01T06:00:48;117.90;;;83.60;;
69203;SDS011;56317;27.658;85.326;2023-03-01T06:03:16;103.25;;;75.68;;
69203;SDS011;56317;27.658;85.326;2023-03-01T06:05:44;105.13;;;78.20;;
69203;SDS011;56317;27.658;85.326;2023-03-01T06:08:11;110.55;;;80.68;;
69203;SDS011;56317;27.658;85.326;2023-03-01T06:10:39;110.10;;;84.20;;
69203;SDS011;56317;27.658;85.326;2023-03-01T06:13:07;107.68;;;81.95;;
69203;SDS011;56317;27.658;85.326;2023-03-01T06:15:34;125.90;;;92.80;;
69203;SDS011;56317;27.658;85.326;2023-03-01T06:18:01;109.00;;;82.93;;
69203;SDS011;56317;27.658;85.326;2023-03-01T06:20:29;115.10;;;81.85;;
69203;SDS011;56317;27.658;85.326;2023-03-01T06:22:56;103.10;;;73.70;;
69203;SDS011;56317;27.658;85.326;2023-03-01T06:25:26;98.15;;;75.32;;
69203;SDS011;56317;27.658;85.326;2023-03-01T06:27:54;105.65;;;76.43;;
69203;SDS011;56317;27.658;85.326;2023-03-01T06:30:22;107.40;;;79.40;;
69203;SDS011;56317;27.658;85.326;2023-03-01T06:32:51;110.10;;;81.90;;
69203;SDS011;56317;27.658;85.326;2023-03-01T06:35:26;101.90;;;77.88;;
69203;SDS011;56317;27.658;85.326;2023-03-01T06:37:57;94.75;;;75.97;;
69203;SDS011;56317;27.658;85.326;2023-03-01T06:40:26;106.43;;;75.10;;
69203;SDS011;56317;27.658;85.326;2023-03-01T06:42:54;101.57;;;71.85;;
69203;SDS011;56317;27.658;85.326;2023-03-01T06:45:22;93.88;;;69.82;;
69203;SDS011;56317;27.658;85.326;2023-03-01T06:47:49;98.40;;;67.63;;
69203;SDS011;56317;27.658;85.326;2023-03-01T06:50:17;89.60;;;63.92;;
69203;SDS011;56317;27.658;85.326;2023-03-01T06:52:45;88.38;;;65.70;;
69203;SDS011;56317;27.658;85.326;2023-03-01T06:55:13;93.22;;;66.88;;
69203;SDS011;56317;27.658;85.326;2023-03-01T06:57:40;84.88;;;64.75;;
69203;SDS011;56317;27.658;85.326;2023-03-01T07:00:08;87.20;;;63.75;;
69203;SDS011;56317;27.658;85.326;2023-03-01T07:02:36;93.32;;;63.78;;
69203;SDS011;56317;27.658;85.326;2023-03-01T07:05:03;91.88;;;64.40;;
69203;SDS011;56317;27.658;85.326;2023-03-01T07:07:31;87.68;;;66.05;;
69203;SDS011;56317;27.658;85.326;2023-03-01T07:09:58;94.03;;;64.32;;
69203;SDS011;56317;27.658;85.326;2023-03-01T07:12:26;81.75;;;63.00;;
69203;SDS011;56317;27.658;85.326;2023-03-01T07:14:53;87.38;;;62.58;;
69203;SDS011;56317;27.658;85.326;2023-03-01T07:17:20;84.28;;;61.95;;
69203;SDS011;56317;27.658;85.326;2023-03-01T07:19:47;88.45;;;62.65;;
69203;SDS011;56317;27.658;85.326;2023-03-01T07:22:15;83.13;;;62.65;;
69203;SDS011;56317;27.658;85.326;2023-03-01T07:24:42;78.80;;;62.55;;
69203;SDS011;56317;27.658;85.326;2023-03-01T07:27:10;86.45;;;64.68;;
69203;SDS011;56317;27.658;85.326;2023-03-01T07:29:37;92.97;;;65.07;;
69203;SDS011;56317;27.658;85.326;2023-03-01T07:32:05;90.22;;;63.85;;
69203;SDS011;56317;27.658;85.326;2023-03-01T07:34:33;98.53;;;65.70;;
69203;SDS011;56317;27.658;85.326;2023-03-01T07:37:00;86.07;;;63.42;;
69203;SDS011;56317;27.658;85.326;2023-03-01T07:39:27;88.57;;;66.43;;
69203;SDS011;56317;27.658;85.326;2023-03-01T07:41:55;96.10;;;63.72;;
69203;SDS011;56317;27.658;85.326;2023-03-01T07:44:22;85.47;;;64.18;;
69203;SDS011;56317;27.658;85.326;2023-03-01T07:46:49;86.63;;;64.20;;
69203;SDS011;56317;27.658;85.326;2023-03-01T07:49:21;97.03;;;62.33;;
69203;SDS011;56317;27.658;85.326;2023-03-01T07:51:49;92.97;;;65.15;;
69203;SDS011;56317;27.658;85.326;2023-03-01T07:54:16;92.30;;;71.85;;
69203;SDS011;56317;27.658;85.326;2023-03-01T07:56:44;97.90;;;72.05;;
69203;SDS011;56317;27.658;85.326;2023-03-01T07:59:11;99.70;;;73.63;;
69203;SDS011;56317;27.658;85.326;2023-03-01T08:01:38;97.60;;;70.95;;
69203;SDS011;56317;27.658;85.326;2023-03-01T08:04:07;105.72;;;73.88;;
69203;SDS011;56317;27.658;85.326;2023-03-01T08:06:34;102.88;;;71.15;;
69203;SDS011;56317;27.658;85.326;2023-03-01T08:09:02;92.93;;;70.75;;
69203;SDS011;56317;27.658;85.326;2023-03-01T08:11:30;93.55;;;67.43;;
69203;SDS011;56317;27.658;85.326;2023-03-01T08:13:57;89.45;;;66.00;;
69203;SDS011;56317;27.658;85.326;2023-03-01T08:16:24;85.32;;;65.78;;
69203;SDS011;56317;27.658;85.326;2023-03-01T08:18:52;91.80;;;67.05;;
69203;SDS011;56317;27.658;85.326;2023-03-01T08:21:22;90.40;;;66.15;;
69203;SDS011;56317;27.658;85.326;2023-03-01T08:23:49;90.85;;;64.88;;
69203;SDS011;56317;27.658;85.326;2023-03-01T08:26:17;84.03;;;64.65;;
69203;SDS011;56317;27.658;85.326;2023-03-01T08:28:47;95.55;;;65.18;;
69203;SDS011;56317;27.658;85.326;2023-03-01T08:33:46;97.22;;;66.10;;
69203;SDS011;56317;27.658;85.326;2023-03-01T08:38:43;87.50;;;64.18;;
69203;SDS011;56317;27.658;85.326;2023-03-01T08:41:11;93.93;;;67.45;;
69203;SDS011;56317;27.658;85.326;2023-03-01T08:43:39;95.40;;;68.55;;
69203;SDS011;56317;27.658;85.326;2023-03-01T08:46:06;88.60;;;67.63;;
69203;SDS011;56317;27.658;85.326;2023-03-01T08:48:33;104.55;;;73.40;;
69203;SDS011;56317;27.658;85.326;2023-03-01T08:51:07;102.47;;;72.93;;
69203;SDS011;56317;27.658;85.326;2023-03-01T08:53:36;103.88;;;73.55;;
69203;SDS011;56317;27.658;85.326;2023-03-01T08:56:03;102.07;;;71.40;;
69203;SDS011;56317;27.658;85.326;2023-03-01T08:58:31;102.47;;;72.18;;
69203;SDS011;56317;27.658;85.326;2023-03-01T09:00:58;94.53;;;68.40;;
69203;SDS011;56317;27.658;85.326;2023-03-01T09:03:26;93.88;;;68.10;;
69203;SDS011;56317;27.658;85.326;2023-03-01T09:05:59;92.55;;;65.82;;
69203;SDS011;56317;27.658;85.326;2023-03-01T09:08:27;87.95;;;67.60;;
69203;SDS011;56317;27.658;85.326;2023-03-01T09:10:55;105.32;;;68.38;;
69203;SDS011;56317;27.658;85.326;2023-03-01T09:13:22;88.05;;;64.93;;
69203;SDS011;56317;27.658;85.326;2023-03-01T09:15:50;96.03;;;66.85;;
69203;SDS011;56317;27.658;85.326;2023-03-01T09:18:18;86.75;;;66.13;;
69203;SDS011;56317;27.658;85.326;2023-03-01T09:20:45;92.40;;;66.70;;
69203;SDS011;56317;27.658;85.326;2023-03-01T09:23:12;94.88;;;67.28;;
69203;SDS011;56317;27.658;85.326;2023-03-01T09:25:39;90.25;;;68.15;;
69203;SDS011;56317;27.658;85.326;2023-03-01T09:28:07;102.35;;;68.90;;
69203;SDS011;56317;27.658;85.326;2023-03-01T09:30:36;113.88;;;72.90;;
69203;SDS011;56317;27.658;85.326;2023-03-01T09:33:03;93.70;;;70.90;;
69203;SDS011;56317;27.658;85.326;2023-03-01T09:35:31;109.20;;;68.82;;
69203;SDS011;56317;27.658;85.326;2023-03-01T09:37:58;106.25;;;72.32;;
69203;SDS011;56317;27.658;85.326;2023-03-01T09:40:26;97.05;;;68.32;;
69203;SDS011;56317;27.658;85.326;2023-03-01T09:46:09;96.30;;;70.38;;
69203;SDS011;56317;27.658;85.326;2023-03-01T09:51:31;103.65;;;71.97;;
69203;SDS011;56317;27.658;85.326;2023-03-01T09:54:03;95.40;;;70.63;;
69203;SDS011;56317;27.658;85.326;2023-03-01T09:56:36;110.43;;;73.07;;
69203;SDS011;56317;27.658;85.326;2023-03-01T10:09:56;124.60;;;78.38;;
69203;SDS011;56317;27.658;85.326;2023-03-01T10:12:33;126.25;;;80.57;;
69203;SDS011;56317;27.658;85.326;2023-03-01T10:15:07;122.00;;;81.50;;
69203;SDS011;56317;27.658;85.326;2023-03-01T10:20:26;123.50;;;82.07;;
69203;SDS011;56317;27.658;85.326;2023-03-01T10:23:11;123.78;;;79.78;;
69203;SDS011;56317;27.658;85.326;2023-03-01T10:28:20;118.47;;;80.03;;
69203;SDS011;56317;27.658;85.326;2023-03-01T10:30:51;137.98;;;82.82;;
69203;SDS011;56317;27.658;85.326;2023-03-01T10:33:30;130.98;;;84.65;;
69203;SDS011;56317;27.658;85.326;2023-03-01T10:36:03;121.93;;;80.50;;
69203;SDS011;56317;27.658;85.326;2023-03-01T10:38:31;126.72;;;83.32;;
69203;SDS011;56317;27.658;85.326;2023-03-01T10:51:32;143.00;;;89.20;;
69203;SDS011;56317;27.658;85.326;2023-03-01T10:54:00;139.52;;;92.70;;
69203;SDS011;56317;27.658;85.326;2023-03-01T10:56:29;153.02;;;93.15;;
69203;SDS011;56317;27.658;85.326;2023-03-01T10:59:27;114.65;;;80.10;;
69203;SDS011;56317;27.658;85.326;2023-03-01T11:05:02;124.53;;;82.97;;
69203;SDS011;56317;27.658;85.326;2023-03-01T11:10:21;140.45;;;87.15;;
69203;SDS011;56317;27.658;85.326;2023-03-01T11:13:17;150.23;;;93.28;;
69203;SDS011;56317;27.658;85.326;2023-03-01T11:18:32;158.30;;;101.00;;
69203;SDS011;56317;27.658;85.326;2023-03-01T11:20:59;147.75;;;97.20;;
69203;SDS011;56317;27.658;85.326;2023-03-01T11:23:29;157.73;;;100.78;;
69203;SDS011;56317;27.658;85.326;2023-03-01T11:26:05;153.80;;;99.80;;
69203;SDS011;56317;27.658;85.326;2023-03-01T11:28:36;163.25;;;104.85;;
69203;SDS011;56317;27.658;85.326;2023-03-01T11:31:09;177.82;;;106.13;;
69203;SDS011;56317;27.658;85.326;2023-03-01T11:33:43;172.68;;;111.75;;
69203;SDS011;56317;27.658;85.326;2023-03-01T11:36:31;179.98;;;111.95;;
69203;SDS011;56317;27.658;85.326;2023-03-01T11:39:24;177.02;;;112.20;;
69203;SDS011;56317;27.658;85.326;2023-03-01T11:45:01;177.00;;;112.40;;
69203;SDS011;56317;27.658;85.326;2023-03-01T11:50:07;175.15;;;111.90;;
69203;SDS011;56317;27.658;85.326;2023-03-01T12:09:37;207.65;;;126.15;;
69203;SDS011;56317;27.658;85.326;2023-03-01T12:26:43;191.32;;;128.00;;
69203;SDS011;56317;27.658;85.326;2023-03-01T12:29:31;204.27;;;127.82;;
69203;SDS011;56317;27.658;85.326;2023-03-01T12:32:34;203.85;;;125.82;;
69203;SDS011;56317;27.658;85.326;2023-03-01T12:38:40;225.25;;;127.00;;
69203;SDS011;56317;27.658;85.326;2023-03-01T12:44:11;212.43;;;133.70;;
69203;SDS011;56317;27.658;85.326;2023-03-01T12:49:28;222.60;;;133.60;;
69203;SDS011;56317;27.658;85.326;2023-03-01T12:54:44;221.73;;;136.40;;
69203;SDS011;56317;27.658;85.326;2023-03-01T12:57:17;216.85;;;138.30;;
69203;SDS011;56317;27.658;85.326;2023-03-01T13:00:22;216.07;;;135.25;;
69203;SDS011;56317;27.658;85.326;2023-03-01T13:05:56;235.95;;;142.25;;
69203;SDS011;56317;27.658;85.326;2023-03-01T13:09:03;238.40;;;146.65;;
69203;SDS011;56317;27.658;85.326;2023-03-01T13:11:32;231.13;;;145.80;;
69203;SDS011;56317;27.658;85.326;2023-03-01T13:16:52;220.67;;;140.73;;
69203;SDS011;56317;27.658;85.326;2023-03-01T13:19:26;221.23;;;143.85;;
69203;SDS011;56317;27.658;85.326;2023-03-01T13:21:55;237.55;;;144.02;;
69203;SDS011;56317;27.658;85.326;2023-03-01T13:24:37;233.65;;;143.65;;
69203;SDS011;56317;27.658;85.326;2023-03-01T13:29:46;227.20;;;144.63;;
69203;SDS011;56317;27.658;85.326;2023-03-01T13:32:25;226.95;;;144.90;;
69203;SDS011;56317;27.658;85.326;2023-03-01T13:37:34;229.85;;;148.43;;
69203;SDS011;56317;27.658;85.326;2023-03-01T13:40:04;235.82;;;148.55;;
69203;SDS011;56317;27.658;85.326;2023-03-01T13:42:45;237.07;;;149.57;;
69203;SDS011;56317;27.658;85.326;2023-03-01T13:50:38;231.02;;;148.13;;
69203;SDS011;56317;27.658;85.326;2023-03-01T13:53:18;234.80;;;147.77;;
69203;SDS011;56317;27.658;85.326;2023-03-01T13:55:48;237.05;;;152.60;;
69203;SDS011;56317;27.658;85.326;2023-03-01T14:03:29;241.18;;;152.15;;
69203;SDS011;56317;27.658;85.326;2023-03-01T14:06:08;240.95;;;151.07;;
69203;SDS011;56317;27.658;85.326;2023-03-01T14:08:41;248.82;;;155.27;;
69203;SDS011;56317;27.658;85.326;2023-03-01T14:11:20;254.18;;;155.75;;
69203;SDS011;56317;27.658;85.326;2023-03-01T14:14:16;257.17;;;152.38;;
69203;SDS011;56317;27.658;85.326;2023-03-01T14:17:04;183.20;;;115.78;;
69203;SDS011;56317;27.658;85.326;2023-03-01T14:19:37;246.90;;;151.95;;
69203;SDS011;56317;27.658;85.326;2023-03-01T14:22:14;249.52;;;153.07;;
69203;SDS011;56317;27.658;85.326;2023-03-01T14:24:48;250.82;;;154.55;;
69203;SDS011;56317;27.658;85.326;2023-03-01T14:27:17;244.07;;;149.20;;
69203;SDS011;56317;27.658;85.326;2023-03-01T14:29:54;251.68;;;151.07;;
69203;SDS011;56317;27.658;85.326;2023-03-01T14:32:26;260.90;;;155.10;;
69203;SDS011;56317;27.658;85.326;2023-03-01T14:34:55;247.18;;;153.32;;
69203;SDS011;56317;27.658;85.326;2023-03-01T14:37:31;243.85;;;154.45;;
69203;SDS011;56317;27.658;85.326;2023-03-01T14:40:00;241.45;;;151.15;;
69203;SDS011;56317;27.658;85.326;2023-03-01T14:42:36;242.95;;;147.52;;
69203;SDS011;56317;27.658;85.326;2023-03-01T14:45:03;243.95;;;150.77;;
69203;SDS011;56317;27.658;85.326;2023-03-01T14:47:33;245.52;;;150.40;;
69203;SDS011;56317;27.658;85.326;2023-03-01T14:52:35;246.25;;;153.18;;
69203;SDS011;56317;27.658;85.326;2023-03-01T14:55:21;251.45;;;155.18;;
69203;SDS011;56317;27.658;85.326;2023-03-01T14:57:54;246.18;;;151.43;;
69203;SDS011;56317;27.658;85.326;2023-03-01T15:00:28;239.57;;;155.10;;
69203;SDS011;56317;27.658;85.326;2023-03-01T15:02:58;243.93;;;152.75;;
69203;SDS011;56317;27.658;85.326;2023-03-01T15:05:35;243.43;;;152.13;;
69203;SDS011;56317;27.658;85.326;2023-03-01T15:08:02;237.10;;;151.95;;
69203;SDS011;56317;27.658;85.326;2023-03-01T15:10:32;242.35;;;154.82;;
69203;SDS011;56317;27.658;85.326;2023-03-01T15:13:22;239.07;;;148.23;;
69203;SDS011;56317;27.658;85.326;2023-03-01T15:15:50;249.40;;;153.02;;
69203;SDS011;56317;27.658;85.326;2023-03-01T15:18:25;238.77;;;147.70;;
69203;SDS011;56317;27.658;85.326;2023-03-01T15:20:54;255.32;;;149.60;;
69203;SDS011;56317;27.658;85.326;2023-03-01T15:23:31;249.07;;;150.13;;
69203;SDS011;56317;27.658;85.326;2023-03-01T15:25:59;268.35;;;156.82;;
69203;SDS011;56317;27.658;85.326;2023-03-01T15:28:36;283.33;;;158.55;;
69203;SDS011;56317;27.658;85.326;2023-03-01T15:34:07;258.70;;;158.73;;
69203;SDS011;56317;27.658;85.326;2023-03-01T15:36:49;269.45;;;159.82;;
69203;SDS011;56317;27.658;85.326;2023-03-01T15:47:50;277.05;;;163.80;;
69203;SDS011;56317;27.658;85.326;2023-03-01T15:50:25;266.45;;;157.38;;
69203;SDS011;56317;27.658;85.326;2023-03-01T15:52:55;285.45;;;158.57;;
69203;SDS011;56317;27.658;85.326;2023-03-01T15:55:25;256.23;;;156.25;;
69203;SDS011;56317;27.658;85.326;2023-03-01T16:00:44;267.40;;;161.20;;
69203;SDS011;56317;27.658;85.326;2023-03-01T16:03:14;252.98;;;159.15;;
69203;SDS011;56317;27.658;85.326;2023-03-01T16:05:47;271.50;;;160.77;;
69203;SDS011;56317;27.658;85.326;2023-03-01T16:08:15;273.33;;;164.80;;
69203;SDS011;56317;27.658;85.326;2023-03-01T16:10:44;278.42;;;167.77;;
69203;SDS011;56317;27.658;85.326;2023-03-01T16:13:13;259.10;;;162.98;;
69203;SDS011;56317;27.658;85.326;2023-03-01T16:15:41;291.92;;;169.93;;
69203;SDS011;56317;27.658;85.326;2023-03-01T16:18:08;277.35;;;165.38;;
69203;SDS011;56317;27.658;85.326;2023-03-01T16:20:37;257.77;;;162.15;;
69203;SDS011;56317;27.658;85.326;2023-03-01T16:23:05;264.15;;;162.30;;
69203;SDS011;56317;27.658;85.326;2023-03-01T16:25:34;259.17;;;159.38;;
69203;SDS011;56317;27.658;85.326;2023-03-01T16:28:03;265.70;;;158.75;;
69203;SDS011;56317;27.658;85.326;2023-03-01T16:30:34;195.95;;;122.20;;
69203;SDS011;56317;27.658;85.326;2023-03-01T16:33:02;267.20;;;157.90;;
69203;SDS011;56317;27.658;85.326;2023-03-01T16:35:33;270.70;;;160.13;;
69203;SDS011;56317;27.658;85.326;2023-03-01T16:38:05;260.08;;;157.15;;
69203;SDS011;56317;27.658;85.326;2023-03-01T16:40:32;245.80;;;154.50;;